Aérodrome :
LOGIN :

S'inscrire | Disclaimer

   EN    FR    IT 

 










Légende :    VFR   VFR Marginal   IFR   IFR Intensif   IFR Très Intensif
Visi : 
Plafond : 
>= 8 km
>= 3000ft
5 à 8 km
1000 à 3000 ft
1500m à 5 km
500 à 1000 ft
800 à 1500m
200 à 500 ft
< 800m
< 200 ft
Symboles :   Orages  Brouillard  Fortes neiges  Fortes précipitations  Vent > 20 kt
SIGMETs :   Divers  Orages  Givrage  Turbulence  Onde Orograph.  Cendres Volcan.






- Altitude de l'aérodrome : 204 ft
- Code IATA : AGF


LFBA - Agen

DERNIER METAR :
  • 261630Z AUTO 28011KT 9999 SCT029 BKN034 BKN041 09/05 Q1019 TEMPO 30015G25KT 4000 -SHRA BKN014 BKN025TCU

METARs EXPIRÉS :
  • 261600Z AUTO 29012KT 9999 FEW018 SCT039 BKN084 10/05 Q1019 TEMPO 30015G25KT 3000 SHRA BKN014 BKN025TCU
  • 261530Z AUTO 28013KT 9999 BKN033 BKN043 BKN062 10/05 Q1018 TEMPO 30015G25KT 3000 SHRA BKN014 BKN025TCU
  • 261500Z AUTO 31012KT 9999 ///TCU 10/06 Q1018 TEMPO 30015G25KT 3000 SHRA BKN014 BKN025TCU
  • 261430Z AUTO 30016KT 270V330 9999 -RA FEW027 BKN035 BKN043 08/04 Q1019 TEMPO 30015G25KT 3000 SHRA BKN014 BKN025TCU
  • 261400Z AUTO 29013KT 9999 FEW024/// BKN031/// BKN038/// ///TCU 09/05 Q1018 TEMPO 30015G25KT 3000 SHRA BKN014 BKN025TCU

TAF TAF LFBA
Valide du 26 à 15h jusqu'au 27 à 00h UTC


261400Z 2615/2624 30010KT 9999 BKN030
TEMPO 2615/2618 30015G25KT 3000 SHRA BKN014 BKN025TCU
BECMG 2618/2620 24005KT
PROB30
TEMPO 2618/2624 4000 -SHRA BKN020



MET'MAP, la Météo Aéronautique d'un coup d'oeil ! - Copyright ORBIFLY Décembre 2007 - Disclaimer

ORBIFLY MET'MAP TEAM :

Programmation & Développement : Alexandra Zaïnal
Sur une idée originale de : Baudouin d'Aumeries
Assistance à la programmation : Marc-Olivier Méhu
Soutien technique & logistique : Manuel Goepfert

Contact : metmap@orbifly.com




SOURCES & CREDITS :

   NOAA